sensor_id;sensor_type;location;lat;lon;timestamp;temperature;humidity
5576;DHT22;2810;50.134;8.626;2023-07-29T07:03:46;19.00;99.90
5576;DHT22;2810;50.134;8.626;2023-07-29T07:06:12;18.80;99.90
5576;DHT22;2810;50.134;8.626;2023-07-29T07:08:37;18.70;99.90
5576;DHT22;2810;50.134;8.626;2023-07-29T07:11:03;18.70;99.90
5576;DHT22;2810;50.134;8.626;2023-07-29T07:13:28;18.70;99.90
5576;DHT22;2810;50.134;8.626;2023-07-29T07:15:54;19.00;99.90
5576;DHT22;2810;50.134;8.626;2023-07-29T07:18:19;18.70;99.90
5576;DHT22;2810;50.134;8.626;2023-07-29T07:20:48;18.80;99.90
5576;DHT22;2810;50.134;8.626;2023-07-29T07:23:13;18.80;99.90
5576;DHT22;2810;50.134;8.626;2023-07-29T07:25:39;18.80;99.90
5576;DHT22;2810;50.134;8.626;2023-07-29T07:28:04;18.90;99.90
5576;DHT22;2810;50.134;8.626;2023-07-29T07:30:30;18.90;99.90
5576;DHT22;2810;50.134;8.626;2023-07-29T07:32:55;18.90;99.90
5576;DHT22;2810;50.134;8.626;2023-07-29T07:35:20;19.00;99.90
5576;DHT22;2810;50.134;8.626;2023-07-29T07:37:46;19.00;99.90
5576;DHT22;2810;50.134;8.626;2023-07-29T07:40:11;19.00;99.90
5576;DHT22;2810;50.134;8.626;2023-07-29T07:42:37;19.10;99.90
5576;DHT22;2810;50.134;8.626;2023-07-29T07:45:02;19.10;99.90
5576;DHT22;2810;50.134;8.626;2023-07-29T07:47:28;19.10;99.90
5576;DHT22;2810;50.134;8.626;2023-07-29T07:49:53;19.10;99.90
5576;DHT22;2810;50.134;8.626;2023-07-29T07:52:18;19.10;99.90
5576;DHT22;2810;50.134;8.626;2023-07-29T07:54:44;19.10;99.90
5576;DHT22;2810;50.134;8.626;2023-07-29T07:57:09;19.20;99.90
5576;DHT22;2810;50.134;8.626;2023-07-29T07:59:35;19.20;99.90
5576;DHT22;2810;50.134;8.626;2023-07-29T08:02:00;19.40;99.90
5576;DHT22;2810;50.134;8.626;2023-07-29T08:04:26;19.40;99.90
5576;DHT22;2810;50.134;8.626;2023-07-29T08:06:51;19.40;99.90
5576;DHT22;2810;50.134;8.626;2023-07-29T08:09:16;19.50;99.90
5576;DHT22;2810;50.134;8.626;2023-07-29T08:11:42;19.40;99.90
5576;DHT22;2810;50.134;8.626;2023-07-29T08:14:07;19.50;99.90
5576;DHT22;2810;50.134;8.626;2023-07-29T08:16:33;19.70;99.90
5576;DHT22;2810;50.134;8.626;2023-07-29T08:18:58;19.90;99.90
5576;DHT22;2810;50.134;8.626;2023-07-29T08:21:23;20.20;99.90
5576;DHT22;2810;50.134;8.626;2023-07-29T08:23:49;20.30;99.90
5576;DHT22;2810;50.134;8.626;2023-07-29T08:26:14;20.30;99.90
5576;DHT22;2810;50.134;8.626;2023-07-29T08:28:40;20.30;99.90
5576;DHT22;2810;50.134;8.626;2023-07-29T08:31:05;20.40;99.90
5576;DHT22;2810;50.134;8.626;2023-07-29T08:33:31;20.40;99.90
5576;DHT22;2810;50.134;8.626;2023-07-29T08:35:58;20.70;99.90
5576;DHT22;2810;50.134;8.626;2023-07-29T08:38:24;20.30;99.90
5576;DHT22;2810;50.134;8.626;2023-07-29T08:40:53;20.60;99.90
5576;DHT22;2810;50.134;8.626;2023-07-29T08:43:19;21.20;99.90
5576;DHT22;2810;50.134;8.626;2023-07-29T08:45:46;21.70;99.90
5576;DHT22;2810;50.134;8.626;2023-07-29T08:48:11;22.00;99.90
5576;DHT22;2810;50.134;8.626;2023-07-29T08:50:37;22.70;99.90
5576;DHT22;2810;50.134;8.626;2023-07-29T08:53:06;23.90;99.90
5576;DHT22;2810;50.134;8.626;2023-07-29T08:55:32;25.00;99.90
5576;DHT22;2810;50.134;8.626;2023-07-29T08:57:58;25.90;99.90
5576;DHT22;2810;50.134;8.626;2023-07-29T09:00:25;25.70;99.90
5576;DHT22;2810;50.134;8.626;2023-07-29T09:02:50;26.60;99.90
5576;DHT22;2810;50.134;8.626;2023-07-29T09:05:16;27.10;99.90
5576;DHT22;2810;50.134;8.626;2023-07-29T09:07:41;27.30;99.90
5576;DHT22;2810;50.134;8.626;2023-07-29T09:10:10;26.70;99.90
5576;DHT22;2810;50.134;8.626;2023-07-29T09:12:38;26.40;99.90
5576;DHT22;2810;50.134;8.626;2023-07-29T09:15:04;26.00;99.90
5576;DHT22;2810;50.134;8.626;2023-07-29T09:17:32;25.60;99.90
5576;DHT22;2810;50.134;8.626;2023-07-29T09:19:58;25.30;99.90
5576;DHT22;2810;50.134;8.626;2023-07-29T09:22:24;25.70;99.90
5576;DHT22;2810;50.134;8.626;2023-07-29T09:24:50;26.70;99.90
5576;DHT22;2810;50.134;8.626;2023-07-29T09:27:26;27.80;99.90
5576;DHT22;2810;50.134;8.626;2023-07-29T09:29:52;28.60;99.90
5576;DHT22;2810;50.134;8.626;2023-07-29T09:32:18;28.60;99.90
5576;DHT22;2810;50.134;8.626;2023-07-29T09:34:45;28.70;99.90
5576;DHT22;2810;50.134;8.626;2023-07-29T09:37:15;28.40;99.90
5576;DHT22;2810;50.134;8.626;2023-07-29T09:39:43;28.00;99.90
5576;DHT22;2810;50.134;8.626;2023-07-29T09:42:11;27.80;99.90
5576;DHT22;2810;50.134;8.626;2023-07-29T09:44:36;27.50;99.90
5576;DHT22;2810;50.134;8.626;2023-07-29T09:47:02;27.00;99.90
5576;DHT22;2810;50.134;8.626;2023-07-29T09:49:27;26.70;99.90
5576;DHT22;2810;50.134;8.626;2023-07-29T09:51:55;26.70;99.90
5576;DHT22;2810;50.134;8.626;2023-07-29T09:54:20;26.50;99.90
5576;DHT22;2810;50.134;8.626;2023-07-29T09:56:46;26.40;99.90
5576;DHT22;2810;50.134;8.626;2023-07-29T09:59:12;26.60;99.90
5576;DHT22;2810;50.134;8.626;2023-07-29T10:01:38;26.40;99.90
5576;DHT22;2810;50.134;8.626;2023-07-29T10:04:03;26.00;99.90
5576;DHT22;2810;50.134;8.626;2023-07-29T10:06:29;25.50;99.90
5576;DHT22;2810;50.134;8.626;2023-07-29T10:08:55;25.00;99.90
5576;DHT22;2810;50.134;8.626;2023-07-29T10:11:20;24.60;99.90
5576;DHT22;2810;50.134;8.626;2023-07-29T10:13:47;24.50;99.90
5576;DHT22;2810;50.134;8.626;2023-07-29T10:16:13;24.50;99.90
5576;DHT22;2810;50.134;8.626;2023-07-29T10:18:38;24.40;99.90
5576;DHT22;2810;50.134;8.626;2023-07-29T10:21:05;24.30;99.90
5576;DHT22;2810;50.134;8.626;2023-07-29T10:23:36;24.20;99.90
5576;DHT22;2810;50.134;8.626;2023-07-29T10:26:03;24.60;99.90
5576;DHT22;2810;50.134;8.626;2023-07-29T10:28:30;24.90;99.90
5576;DHT22;2810;50.134;8.626;2023-07-29T10:30:56;25.10;99.90
5576;DHT22;2810;50.134;8.626;2023-07-29T10:33:21;25.10;99.90
5576;DHT22;2810;50.134;8.626;2023-07-29T10:35:47;25.60;99.90
5576;DHT22;2810;50.134;8.626;2023-07-29T10:38:13;25.90;99.90
5576;DHT22;2810;50.134;8.626;2023-07-29T10:43:11;25.70;99.90
5576;DHT22;2810;50.134;8.626;2023-07-29T10:45:40;25.30;99.90
5576;DHT22;2810;50.134;8.626;2023-07-29T10:50:55;25.00;99.90
5576;DHT22;2810;50.134;8.626;2023-07-29T10:53:36;25.00;99.90
5576;DHT22;2810;50.134;8.626;2023-07-29T10:56:02;25.00;99.90
5576;DHT22;2810;50.134;8.626;2023-07-29T10:58:27;24.80;99.90
5576;DHT22;2810;50.134;8.626;2023-07-29T11:00:55;24.50;99.90
5576;DHT22;2810;50.134;8.626;2023-07-29T11:03:20;24.50;99.90
5576;DHT22;2810;50.134;8.626;2023-07-29T11:05:50;24.60;99.90
5576;DHT22;2810;50.134;8.626;2023-07-29T11:08:22;24.50;99.90
5576;DHT22;2810;50.134;8.626;2023-07-29T11:11:01;24.40;99.90
5576;DHT22;2810;50.134;8.626;2023-07-29T11:13:27;24.10;99.90
5576;DHT22;2810;50.134;8.626;2023-07-29T11:15:54;23.80;99.90
5576;DHT22;2810;50.134;8.626;2023-07-29T11:18:20;23.70;99.90
5576;DHT22;2810;50.134;8.626;2023-07-29T11:20:46;23.60;99.90
5576;DHT22;2810;50.134;8.626;2023-07-29T11:23:11;24.30;99.90
5576;DHT22;2810;50.134;8.626;2023-07-29T11:25:37;24.80;99.90
5576;DHT22;2810;50.134;8.626;2023-07-29T11:28:03;25.60;99.90
5576;DHT22;2810;50.134;8.626;2023-07-29T11:30:29;26.80;99.90
5576;DHT22;2810;50.134;8.626;2023-07-29T11:32:59;27.50;99.90
5576;DHT22;2810;50.134;8.626;2023-07-29T11:35:24;27.80;99.90
5576;DHT22;2810;50.134;8.626;2023-07-29T11:37:50;28.30;99.90
5576;DHT22;2810;50.134;8.626;2023-07-29T11:40:20;28.50;99.90
5576;DHT22;2810;50.134;8.626;2023-07-29T11:42:46;28.40;99.90
5576;DHT22;2810;50.134;8.626;2023-07-29T11:45:12;28.50;99.90
5576;DHT22;2810;50.134;8.626;2023-07-29T11:47:37;28.60;99.90
5576;DHT22;2810;50.134;8.626;2023-07-29T11:50:04;28.70;99.90
5576;DHT22;2810;50.134;8.626;2023-07-29T11:52:30;28.80;99.90
5576;DHT22;2810;50.134;8.626;2023-07-29T11:54:56;29.00;99.90
5576;DHT22;2810;50.134;8.626;2023-07-29T11:57:22;29.00;99.90
5576;DHT22;2810;50.134;8.626;2023-07-29T11:59:48;28.80;99.90
5576;DHT22;2810;50.134;8.626;2023-07-29T12:02:15;28.80;99.90
5576;DHT22;2810;50.134;8.626;2023-07-29T12:04:41;28.90;99.90
5576;DHT22;2810;50.134;8.626;2023-07-29T12:07:07;29.00;99.90
5576;DHT22;2810;50.134;8.626;2023-07-29T12:09:36;28.90;99.90
5576;DHT22;2810;50.134;8.626;2023-07-29T12:12:05;28.80;99.90
5576;DHT22;2810;50.134;8.626;2023-07-29T12:14:31;28.60;99.90
5576;DHT22;2810;50.134;8.626;2023-07-29T12:16:59;28.30;99.90
5576;DHT22;2810;50.134;8.626;2023-07-29T12:19:30;27.70;99.90
5576;DHT22;2810;50.134;8.626;2023-07-29T12:21:56;27.10;99.90
5576;DHT22;2810;50.134;8.626;2023-07-29T12:24:22;26.80;99.90
5576;DHT22;2810;50.134;8.626;2023-07-29T12:26:47;26.50;99.90
5576;DHT22;2810;50.134;8.626;2023-07-29T12:29:17;26.30;99.90
5576;DHT22;2810;50.134;8.626;2023-07-29T12:31:45;26.00;99.90
5576;DHT22;2810;50.134;8.626;2023-07-29T12:34:10;26.00;99.90
5576;DHT22;2810;50.134;8.626;2023-07-29T12:36:42;26.20;99.90
5576;DHT22;2810;50.134;8.626;2023-07-29T12:39:21;26.70;99.90
5576;DHT22;2810;50.134;8.626;2023-07-29T12:41:47;27.00;99.90
5576;DHT22;2810;50.134;8.626;2023-07-29T12:44:13;27.00;99.90
5576;DHT22;2810;50.134;8.626;2023-07-29T12:46:38;26.90;99.90
5576;DHT22;2810;50.134;8.626;2023-07-29T12:49:04;27.10;99.90
5576;DHT22;2810;50.134;8.626;2023-07-29T12:51:30;27.10;99.90
5576;DHT22;2810;50.134;8.626;2023-07-29T12:53:55;27.00;99.90
5576;DHT22;2810;50.134;8.626;2023-07-29T12:56:21;26.90;99.90
5576;DHT22;2810;50.134;8.626;2023-07-29T12:58:46;26.70;99.90
5576;DHT22;2810;50.134;8.626;2023-07-29T13:01:12;26.50;99.90
5576;DHT22;2810;50.134;8.626;2023-07-29T13:03:43;26.20;99.90
5576;DHT22;2810;50.134;8.626;2023-07-29T13:06:09;25.90;99.90
5576;DHT22;2810;50.134;8.626;2023-07-29T13:08:34;26.00;99.90
5576;DHT22;2810;50.134;8.626;2023-07-29T13:11:00;25.60;99.90
5576;DHT22;2810;50.134;8.626;2023-07-29T13:13:25;25.60;99.90
5576;DHT22;2810;50.134;8.626;2023-07-29T13:15:50;25.50;99.90
5576;DHT22;2810;50.134;8.626;2023-07-29T13:18:16;25.50;99.90
5576;DHT22;2810;50.134;8.626;2023-07-29T13:20:41;25.40;99.90
5576;DHT22;2810;50.134;8.626;2023-07-29T13:23:07;25.30;99.90
5576;DHT22;2810;50.134;8.626;2023-07-29T13:25:32;25.50;99.90
5576;DHT22;2810;50.134;8.626;2023-07-29T13:27:58;25.50;99.90
5576;DHT22;2810;50.134;8.626;2023-07-29T13:30:23;25.70;99.90
5576;DHT22;2810;50.134;8.626;2023-07-29T13:32:48;25.80;99.90
5576;DHT22;2810;50.134;8.626;2023-07-29T13:35:14;25.90;99.90
5576;DHT22;2810;50.134;8.626;2023-07-29T13:37:39;26.00;99.90
5576;DHT22;2810;50.134;8.626;2023-07-29T13:40:05;26.30;99.90
5576;DHT22;2810;50.134;8.626;2023-07-29T13:42:30;26.40;99.90
5576;DHT22;2810;50.134;8.626;2023-07-29T13:44:56;26.60;99.90
5576;DHT22;2810;50.134;8.626;2023-07-29T13:47:21;26.80;99.90
5576;DHT22;2810;50.134;8.626;2023-07-29T13:49:47;27.00;99.90
5576;DHT22;2810;50.134;8.626;2023-07-29T13:52:13;27.20;99.90
5576;DHT22;2810;50.134;8.626;2023-07-29T13:54:39;27.50;99.90
5576;DHT22;2810;50.134;8.626;2023-07-29T13:57:04;27.60;99.90
5576;DHT22;2810;50.134;8.626;2023-07-29T13:59:32;27.70;99.90
5576;DHT22;2810;50.134;8.626;2023-07-29T14:01:57;27.70;99.90
5576;DHT22;2810;50.134;8.626;2023-07-29T14:04:23;27.70;99.90
5576;DHT22;2810;50.134;8.626;2023-07-29T14:06:48;27.90;99.90
5576;DHT22;2810;50.134;8.626;2023-07-29T14:09:13;28.00;99.90
5576;DHT22;2810;50.134;8.626;2023-07-29T14:11:39;28.00;99.90
5576;DHT22;2810;50.134;8.626;2023-07-29T14:14:04;28.00;99.90
5576;DHT22;2810;50.134;8.626;2023-07-29T14:16:30;28.10;99.90
5576;DHT22;2810;50.134;8.626;2023-07-29T14:18:55;28.20;99.90
5576;DHT22;2810;50.134;8.626;2023-07-29T14:21:21;28.10;99.90
5576;DHT22;2810;50.134;8.626;2023-07-29T14:23:46;28.00;99.90
5576;DHT22;2810;50.134;8.626;2023-07-29T14:26:11;28.20;99.90
5576;DHT22;2810;50.134;8.626;2023-07-29T14:28:37;28.10;99.90
5576;DHT22;2810;50.134;8.626;2023-07-29T14:31:02;27.90;99.90
5576;DHT22;2810;50.134;8.626;2023-07-29T14:33:28;27.80;99.90
5576;DHT22;2810;50.134;8.626;2023-07-29T14:35:53;27.60;99.50
5576;DHT22;2810;50.134;8.626;2023-07-29T14:38:19;27.60;99.90
5576;DHT22;2810;50.134;8.626;2023-07-29T14:40:47;27.50;99.90
5576;DHT22;2810;50.134;8.626;2023-07-29T14:43:12;27.50;99.90
5576;DHT22;2810;50.134;8.626;2023-07-29T14:45:38;27.40;99.90
5576;DHT22;2810;50.134;8.626;2023-07-29T14:48:03;27.20;99.10
5576;DHT22;2810;50.134;8.626;2023-07-29T14:50:29;27.20;99.50
5576;DHT22;2810;50.134;8.626;2023-07-29T14:52:54;27.20;99.90
5576;DHT22;2810;50.134;8.626;2023-07-29T14:55:20;27.20;99.90
5576;DHT22;2810;50.134;8.626;2023-07-29T14:57:45;27.20;99.90
5576;DHT22;2810;50.134;8.626;2023-07-29T15:00:11;27.10;98.80
5576;DHT22;2810;50.134;8.626;2023-07-29T15:02:37;27.10;98.80
5576;DHT22;2810;50.134;8.626;2023-07-29T15:05:02;27.00;99.40
5576;DHT22;2810;50.134;8.626;2023-07-29T15:07:28;26.90;99.20
5576;DHT22;2810;50.134;8.626;2023-07-29T15:09:53;26.90;98.40
5576;DHT22;2810;50.134;8.626;2023-07-29T15:12:19;26.90;99.90
5576;DHT22;2810;50.134;8.626;2023-07-29T15:14:44;26.80;99.10
5576;DHT22;2810;50.134;8.626;2023-07-29T15:17:10;26.80;99.40
5576;DHT22;2810;50.134;8.626;2023-07-29T15:19:35;26.80;98.00
5576;DHT22;2810;50.134;8.626;2023-07-29T15:22:00;26.80;98.10
5576;DHT22;2810;50.134;8.626;2023-07-29T15:24:26;26.90;97.40
5576;DHT22;2810;50.134;8.626;2023-07-29T15:26:51;26.90;98.50
5576;DHT22;2810;50.134;8.626;2023-07-29T15:29:17;26.90;97.70
5576;DHT22;2810;50.134;8.626;2023-07-29T15:31:42;26.80;97.10
5576;DHT22;2810;50.134;8.626;2023-07-29T15:34:08;26.60;96.40
5576;DHT22;2810;50.134;8.626;2023-07-29T15:36:33;26.60;96.40
5576;DHT22;2810;50.134;8.626;2023-07-29T15:38:59;26.60;96.70
5576;DHT22;2810;50.134;8.626;2023-07-29T15:41:24;26.50;96.10
5576;DHT22;2810;50.134;8.626;2023-07-29T15:43:50;26.40;96.40
5576;DHT22;2810;50.134;8.626;2023-07-29T15:46:15;26.40;97.40
5576;DHT22;2810;50.134;8.626;2023-07-29T15:48:40;26.50;97.90
5576;DHT22;2810;50.134;8.626;2023-07-29T15:51:06;26.30;98.30
5576;DHT22;2810;50.134;8.626;2023-07-29T15:53:32;26.30;98.10
5576;DHT22;2810;50.134;8.626;2023-07-29T15:55:58;26.50;98.40
5576;DHT22;2810;50.134;8.626;2023-07-29T15:58:23;26.30;98.40
5576;DHT22;2810;50.134;8.626;2023-07-29T16:00:49;25.90;97.00
5576;DHT22;2810;50.134;8.626;2023-07-29T16:03:14;25.80;98.20
5576;DHT22;2810;50.134;8.626;2023-07-29T16:05:40;25.80;97.60
5576;DHT22;2810;50.134;8.626;2023-07-29T16:08:05;26.00;98.70
5576;DHT22;2810;50.134;8.626;2023-07-29T16:10:30;25.80;98.40
5576;DHT22;2810;50.134;8.626;2023-07-29T16:12:56;25.80;99.40
5576;DHT22;2810;50.134;8.626;2023-07-29T16:15:21;25.90;97.90
5576;DHT22;2810;50.134;8.626;2023-07-29T16:17:47;25.80;98.30
5576;DHT22;2810;50.134;8.626;2023-07-29T16:20:16;25.80;97.90
5576;DHT22;2810;50.134;8.626;2023-07-29T16:22:42;25.90;98.40
5576;DHT22;2810;50.134;8.626;2023-07-29T16:25:07;25.80;97.50
5576;DHT22;2810;50.134;8.626;2023-07-29T16:27:33;25.80;97.30
5576;DHT22;2810;50.134;8.626;2023-07-29T16:29:59;25.80;97.10
5576;DHT22;2810;50.134;8.626;2023-07-29T16:32:25;25.80;97.60
5576;DHT22;2810;50.134;8.626;2023-07-29T16:34:50;25.90;97.50
5576;DHT22;2810;50.134;8.626;2023-07-29T16:37:16;26.00;96.50
5576;DHT22;2810;50.134;8.626;2023-07-29T16:39:41;26.20;96.40
5576;DHT22;2810;50.134;8.626;2023-07-29T16:42:07;26.20;97.00
5576;DHT22;2810;50.134;8.626;2023-07-29T16:44:32;26.20;96.70
5576;DHT22;2810;50.134;8.626;2023-07-29T16:46:58;26.00;96.20
5576;DHT22;2810;50.134;8.626;2023-07-29T16:49:23;25.80;96.80
5576;DHT22;2810;50.134;8.626;2023-07-29T16:51:49;25.70;96.70
5576;DHT22;2810;50.134;8.626;2023-07-29T16:54:15;25.50;97.00
5576;DHT22;2810;50.134;8.626;2023-07-29T16:56:44;25.50;97.20
5576;DHT22;2810;50.134;8.626;2023-07-29T16:59:09;25.50;97.90
5576;DHT22;2810;50.134;8.626;2023-07-29T17:01:35;25.70;97.00
5576;DHT22;2810;50.134;8.626;2023-07-29T17:04:00;25.80;97.60
5576;DHT22;2810;50.134;8.626;2023-07-29T17:06:26;25.80;97.00
5576;DHT22;2810;50.134;8.626;2023-07-29T17:08:51;25.80;97.20
5576;DHT22;2810;50.134;8.626;2023-07-29T17:11:16;25.80;97.00
5576;DHT22;2810;50.134;8.626;2023-07-29T17:13:42;25.70;97.40
5576;DHT22;2810;50.134;8.626;2023-07-29T17:16:07;25.70;97.80
5576;DHT22;2810;50.134;8.626;2023-07-29T17:18:33;25.80;98.10
5576;DHT22;2810;50.134;8.626;2023-07-29T17:21:00;25.70;97.90
5576;DHT22;2810;50.134;8.626;2023-07-29T17:23:25;25.70;98.00
5576;DHT22;2810;50.134;8.626;2023-07-29T17:25:51;25.60;98.80
5576;DHT22;2810;50.134;8.626;2023-07-29T17:28:16;25.40;98.10
5576;DHT22;2810;50.134;8.626;2023-07-29T17:30:42;25.30;99.10
5576;DHT22;2810;50.134;8.626;2023-07-29T17:33:07;25.20;98.30
5576;DHT22;2810;50.134;8.626;2023-07-29T17:35:33;25.10;99.30
5576;DHT22;2810;50.134;8.626;2023-07-29T17:37:58;25.10;99.50
5576;DHT22;2810;50.134;8.626;2023-07-29T17:40:23;25.00;99.60
5576;DHT22;2810;50.134;8.626;2023-07-29T17:42:49;25.00;99.60
5576;DHT22;2810;50.134;8.626;2023-07-29T17:45:14;24.90;99.80
5576;DHT22;2810;50.134;8.626;2023-07-29T17:47:40;24.90;99.90
5576;DHT22;2810;50.134;8.626;2023-07-29T17:50:05;24.80;99.90
5576;DHT22;2810;50.134;8.626;2023-07-29T17:52:31;24.80;99.90
5576;DHT22;2810;50.134;8.626;2023-07-29T17:54:56;24.70;99.90
5576;DHT22;2810;50.134;8.626;2023-07-29T17:57:22;24.70;99.90
5576;DHT22;2810;50.134;8.626;2023-07-29T17:59:47;24.60;99.90
5576;DHT22;2810;50.134;8.626;2023-07-29T18:02:13;24.60;99.90
5576;DHT22;2810;50.134;8.626;2023-07-29T18:04:38;24.60;99.90
5576;DHT22;2810;50.134;8.626;2023-07-29T18:07:04;24.50;99.90
5576;DHT22;2810;50.134;8.626;2023-07-29T18:09:29;24.50;99.90
5576;DHT22;2810;50.134;8.626;2023-07-29T18:11:55;24.40;99.90
5576;DHT22;2810;50.134;8.626;2023-07-29T18:14:21;24.40;99.90
5576;DHT22;2810;50.134;8.626;2023-07-29T18:16:46;24.30;99.90
5576;DHT22;2810;50.134;8.626;2023-07-29T18:19:12;24.30;99.90
5576;DHT22;2810;50.134;8.626;2023-07-29T18:21:37;24.20;99.90
5576;DHT22;2810;50.134;8.626;2023-07-29T18:24:03;24.20;99.90
5576;DHT22;2810;50.134;8.626;2023-07-29T18:26:28;24.10;99.90
5576;DHT22;2810;50.134;8.626;2023-07-29T18:28:53;24.10;99.90
5576;DHT22;2810;50.134;8.626;2023-07-29T18:31:19;24.00;99.90
5576;DHT22;2810;50.134;8.626;2023-07-29T18:33:44;24.00;99.90
5576;DHT22;2810;50.134;8.626;2023-07-29T18:36:10;23.90;99.90
5576;DHT22;2810;50.134;8.626;2023-07-29T18:38:35;23.80;99.90
5576;DHT22;2810;50.134;8.626;2023-07-29T18:41:02;23.80;99.90
5576;DHT22;2810;50.134;8.626;2023-07-29T18:43:27;23.70;99.90
5576;DHT22;2810;50.134;8.626;2023-07-29T18:45:53;23.70;99.90
5576;DHT22;2810;50.134;8.626;2023-07-29T18:48:20;23.50;99.90
5576;DHT22;2810;50.134;8.626;2023-07-29T18:50:45;23.40;99.90
5576;DHT22;2810;50.134;8.626;2023-07-29T18:53:11;23.40;99.90
5576;DHT22;2810;50.134;8.626;2023-07-29T18:55:36;23.30;99.90
5576;DHT22;2810;50.134;8.626;2023-07-29T18:58:03;23.20;99.90
5576;DHT22;2810;50.134;8.626;2023-07-29T19:00:28;23.10;99.90
5576;DHT22;2810;50.134;8.626;2023-07-29T19:02:54;23.00;99.90
5576;DHT22;2810;50.134;8.626;2023-07-29T19:05:19;23.00;99.90
5576;DHT22;2810;50.134;8.626;2023-07-29T19:07:45;23.00;99.90
5576;DHT22;2810;50.134;8.626;2023-07-29T19:10:10;22.90;99.90
5576;DHT22;2810;50.134;8.626;2023-07-29T19:12:36;22.90;99.90
5576;DHT22;2810;50.134;8.626;2023-07-29T19:15:05;22.90;99.90
5576;DHT22;2810;50.134;8.626;2023-07-29T19:17:30;22.80;99.90
5576;DHT22;2810;50.134;8.626;2023-07-29T19:19:56;22.80;99.90
5576;DHT22;2810;50.134;8.626;2023-07-29T19:22:22;22.70;99.90
5576;DHT22;2810;50.134;8.626;2023-07-29T19:24:47;22.70;99.90
5576;DHT22;2810;50.134;8.626;2023-07-29T19:27:13;22.60;99.90
5576;DHT22;2810;50.134;8.626;2023-07-29T19:29:40;22.60;99.90
5576;DHT22;2810;50.134;8.626;2023-07-29T19:32:06;22.50;99.90
5576;DHT22;2810;50.134;8.626;2023-07-29T19:34:31;22.50;99.90
5576;DHT22;2810;50.134;8.626;2023-07-29T19:36:57;22.40;99.90
5576;DHT22;2810;50.134;8.626;2023-07-29T19:39:22;22.40;99.90
5576;DHT22;2810;50.134;8.626;2023-07-29T19:41:48;22.50;99.90
5576;DHT22;2810;50.134;8.626;2023-07-29T19:44:13;22.30;99.90
5576;DHT22;2810;50.134;8.626;2023-07-29T19:46:39;22.40;99.90
5576;DHT22;2810;50.134;8.626;2023-07-29T19:49:04;22.40;99.90
5576;DHT22;2810;50.134;8.626;2023-07-29T19:51:29;22.40;99.90
5576;DHT22;2810;50.134;8.626;2023-07-29T19:53:55;22.30;99.90
5576;DHT22;2810;50.134;8.626;2023-07-29T19:56:20;22.30;99.90
5576;DHT22;2810;50.134;8.626;2023-07-29T19:58:46;22.30;99.90
5576;DHT22;2810;50.134;8.626;2023-07-29T20:01:13;22.20;99.90
5576;DHT22;2810;50.134;8.626;2023-07-29T20:03:40;22.20;99.90
5576;DHT22;2810;50.134;8.626;2023-07-29T20:06:05;22.20;99.90
5576;DHT22;2810;50.134;8.626;2023-07-29T20:08:31;22.10;99.90
5576;DHT22;2810;50.134;8.626;2023-07-29T20:10:57;22.00;99.90
5576;DHT22;2810;50.134;8.626;2023-07-29T20:13:22;22.00;99.90
5576;DHT22;2810;50.134;8.626;2023-07-29T20:15:51;21.90;99.90
5576;DHT22;2810;50.134;8.626;2023-07-29T20:18:16;21.90;99.90
5576;DHT22;2810;50.134;8.626;2023-07-29T20:20:41;21.80;99.90
5576;DHT22;2810;50.134;8.626;2023-07-29T20:23:07;21.80;99.90
5576;DHT22;2810;50.134;8.626;2023-07-29T20:25:32;21.80;99.90
5576;DHT22;2810;50.134;8.626;2023-07-29T20:27:58;21.80;99.90
5576;DHT22;2810;50.134;8.626;2023-07-29T20:30:23;21.80;99.90
5576;DHT22;2810;50.134;8.626;2023-07-29T20:32:49;21.80;99.90
5576;DHT22;2810;50.134;8.626;2023-07-29T20:35:14;21.80;99.90
5576;DHT22;2810;50.134;8.626;2023-07-29T20:37:39;21.80;99.90
5576;DHT22;2810;50.134;8.626;2023-07-29T20:40:05;21.80;99.90
5576;DHT22;2810;50.134;8.626;2023-07-29T20:42:31;21.80;99.90
5576;DHT22;2810;50.134;8.626;2023-07-29T20:44:57;21.80;99.90
5576;DHT22;2810;50.134;8.626;2023-07-29T20:47:22;21.50;99.90
5576;DHT22;2810;50.134;8.626;2023-07-29T20:49:48;21.70;99.90
5576;DHT22;2810;50.134;8.626;2023-07-29T20:52:14;21.70;99.90
5576;DHT22;2810;50.134;8.626;2023-07-29T20:54:39;21.70;99.90
5576;DHT22;2810;50.134;8.626;2023-07-29T20:57:05;21.60;99.90
5576;DHT22;2810;50.134;8.626;2023-07-29T20:59:32;21.60;99.90
5576;DHT22;2810;50.134;8.626;2023-07-29T21:01:58;21.60;99.90
5576;DHT22;2810;50.134;8.626;2023-07-29T21:04:23;21.60;99.90
5576;DHT22;2810;50.134;8.626;2023-07-29T21:06:49;21.60;99.90
5576;DHT22;2810;50.134;8.626;2023-07-29T21:09:14;21.70;99.90
5576;DHT22;2810;50.134;8.626;2023-07-29T21:11:40;21.70;99.90
5576;DHT22;2810;50.134;8.626;2023-07-29T21:14:05;21.70;99.90
5576;DHT22;2810;50.134;8.626;2023-07-29T21:16:31;21.60;99.90
5576;DHT22;2810;50.134;8.626;2023-07-29T21:18:56;21.50;99.90
5576;DHT22;2810;50.134;8.626;2023-07-29T21:21:23;21.40;99.90
5576;DHT22;2810;50.134;8.626;2023-07-29T21:23:48;21.30;99.90
5576;DHT22;2810;50.134;8.626;2023-07-29T21:26:14;21.20;99.90
5576;DHT22;2810;50.134;8.626;2023-07-29T21:28:39;21.10;99.90
5576;DHT22;2810;50.134;8.626;2023-07-29T21:31:05;21.00;99.90
5576;DHT22;2810;50.134;8.626;2023-07-29T21:33:30;20.80;99.90
5576;DHT22;2810;50.134;8.626;2023-07-29T21:35:59;20.80;99.90
5576;DHT22;2810;50.134;8.626;2023-07-29T21:38:24;20.80;99.90
5576;DHT22;2810;50.134;8.626;2023-07-29T21:40:49;20.70;99.90
5576;DHT22;2810;50.134;8.626;2023-07-29T21:43:15;20.70;99.90
5576;DHT22;2810;50.134;8.626;2023-07-29T21:45:41;20.70;99.90
5576;DHT22;2810;50.134;8.626;2023-07-29T21:48:06;20.60;99.90
5576;DHT22;2810;50.134;8.626;2023-07-29T21:50:32;20.70;99.90
5576;DHT22;2810;50.134;8.626;2023-07-29T21:52:57;20.70;99.90
5576;DHT22;2810;50.134;8.626;2023-07-29T21:55:23;20.60;99.90
5576;DHT22;2810;50.134;8.626;2023-07-29T21:57:48;20.60;99.90
5576;DHT22;2810;50.134;8.626;2023-07-29T22:00:14;20.70;99.90
5576;DHT22;2810;50.134;8.626;2023-07-29T22:02:40;20.70;99.90
5576;DHT22;2810;50.134;8.626;2023-07-29T22:05:06;20.70;99.90
5576;DHT22;2810;50.134;8.626;2023-07-29T22:07:31;20.70;99.90
5576;DHT22;2810;50.134;8.626;2023-07-29T22:09:56;20.70;99.90
5576;DHT22;2810;50.134;8.626;2023-07-29T22:12:22;20.70;99.90
5576;DHT22;2810;50.134;8.626;2023-07-29T22:14:47;20.70;99.90
5576;DHT22;2810;50.134;8.626;2023-07-29T22:17:13;20.80;99.90
5576;DHT22;2810;50.134;8.626;2023-07-29T22:19:38;20.80;99.90
5576;DHT22;2810;50.134;8.626;2023-07-29T22:22:04;20.90;99.90
5576;DHT22;2810;50.134;8.626;2023-07-29T22:24:29;20.80;99.90
5576;DHT22;2810;50.134;8.626;2023-07-29T22:26:55;20.90;99.90
5576;DHT22;2810;50.134;8.626;2023-07-29T22:29:20;20.90;99.90
5576;DHT22;2810;50.134;8.626;2023-07-29T22:31:46;20.90;99.90
5576;DHT22;2810;50.134;8.626;2023-07-29T22:34:11;20.90;99.90
5576;DHT22;2810;50.134;8.626;2023-07-29T22:36:37;20.90;99.90
5576;DHT22;2810;50.134;8.626;2023-07-29T22:39:02;21.20;99.90
5576;DHT22;2810;50.134;8.626;2023-07-29T22:41:28;20.90;99.90
5576;DHT22;2810;50.134;8.626;2023-07-29T22:43:53;20.90;99.90
5576;DHT22;2810;50.134;8.626;2023-07-29T22:46:19;20.80;99.90
5576;DHT22;2810;50.134;8.626;2023-07-29T22:48:44;20.80;99.90
5576;DHT22;2810;50.134;8.626;2023-07-29T22:51:09;20.80;99.90
5576;DHT22;2810;50.134;8.626;2023-07-29T22:53:35;20.70;99.90
5576;DHT22;2810;50.134;8.626;2023-07-29T22:56:00;20.80;99.90
5576;DHT22;2810;50.134;8.626;2023-07-29T22:58:26;20.70;99.90
5576;DHT22;2810;50.134;8.626;2023-07-29T23:00:52;20.80;99.90